createdAt,value
2019-02-14T00:00:35.988Z,72.30
2019-02-14T00:03:05.165Z,72.40
2019-02-14T00:05:34.308Z,72.10
2019-02-14T00:08:03.709Z,72.00
2019-02-14T00:10:33.895Z,71.40
2019-02-14T00:13:03.019Z,71.80
2019-02-14T00:15:32.341Z,71.20
2019-02-14T00:18:01.499Z,72.30
2019-02-14T00:20:30.631Z,72.10
2019-02-14T00:22:59.923Z,72.60
2019-02-14T00:25:29.082Z,73.10
2019-02-14T00:27:58.316Z,72.80
2019-02-14T00:30:27.636Z,72.70
2019-02-14T00:32:56.821Z,72.40
2019-02-14T00:35:25.964Z,73.30
2019-02-14T00:37:55.153Z,72.70
2019-02-14T00:40:24.466Z,72.80
2019-02-14T00:42:53.650Z,72.70
2019-02-14T00:45:22.885Z,73.40
2019-02-14T00:47:52.023Z,74.20
2019-02-14T00:50:21.228Z,74.10
2019-02-14T00:52:50.605Z,73.20
2019-02-14T00:55:19.793Z,73.30
2019-02-14T00:57:50.018Z,72.90
2019-02-14T01:00:19.277Z,73.40
2019-02-14T01:03:07.495Z,72.90
2019-02-14T01:05:36.849Z,72.40
2019-02-14T01:08:06.385Z,72.50
2019-02-14T01:10:35.564Z,71.70
2019-02-14T01:13:04.726Z,71.80
2019-02-14T01:15:35.357Z,72.40
2019-02-14T01:18:04.564Z,71.90
2019-02-14T01:20:33.745Z,72.50
2019-02-14T01:23:03.204Z,72.70
2019-02-14T01:25:32.379Z,72.10
2019-02-14T01:28:01.724Z,72.60
2019-02-14T01:30:30.982Z,73.30
2019-02-14T01:33:00.156Z,73.60
2019-02-14T01:35:29.614Z,73.50
2019-02-14T01:37:59.029Z,73.00
2019-02-14T01:40:28.196Z,72.50
2019-02-14T01:42:57.379Z,73.40
2019-02-14T01:45:26.744Z,73.30
2019-02-14T01:47:55.950Z,73.10
2019-02-14T01:50:25.147Z,73.10
2019-02-14T01:52:54.361Z,72.90
2019-02-14T01:55:42.584Z,72.70
2019-02-14T01:58:11.953Z,72.80
2019-02-14T02:00:41.227Z,72.80
2019-02-14T02:03:10.593Z,72.60
2019-02-14T02:05:39.803Z,72.80
2019-02-14T02:08:09.172Z,74.10
2019-02-14T02:10:38.337Z,74.70
2019-02-14T02:13:07.518Z,73.60
2019-02-14T02:15:36.788Z,74.00
2019-02-14T02:18:05.965Z,74.80
2019-02-14T02:20:35.121Z,75.30
2019-02-14T02:23:04.512Z,74.10
2019-02-14T02:25:33.664Z,73.90
2019-02-14T02:28:02.934Z,73.80
2019-02-14T02:30:32.292Z,73.80
2019-02-14T02:33:01.563Z,73.20
2019-02-14T02:35:30.736Z,73.10
2019-02-14T02:37:59.909Z,73.30
2019-02-14T02:40:29.252Z,73.70
2019-02-14T02:42:58.433Z,74.60
2019-02-14T02:45:27.612Z,74.70
2019-02-14T02:47:57.026Z,74.50
2019-02-14T02:50:26.516Z,74.50
2019-02-14T02:52:55.815Z,74.20
2019-02-14T02:55:24.980Z,74.20
2019-02-14T02:57:54.333Z,74.90
2019-02-14T03:00:23.638Z,74.70
2019-02-14T03:02:53.158Z,73.80
2019-02-14T03:05:22.307Z,73.50
2019-02-14T03:07:51.642Z,74.10
2019-02-14T03:10:20.810Z,74.40
2019-02-14T03:12:49.977Z,74.20
2019-02-14T03:15:19.164Z,74.20
2019-02-14T03:17:48.445Z,74.00
2019-02-14T03:20:17.628Z,74.30
2019-02-14T03:22:46.792Z,75.00
2019-02-14T03:25:17.219Z,74.70
2019-02-14T03:27:46.628Z,74.60
2019-02-14T03:30:16.155Z,74.60
2019-02-14T03:32:45.314Z,74.40
2019-02-14T03:35:14.492Z,74.80
2019-02-14T03:37:43.796Z,74.80
2019-02-14T03:40:12.988Z,74.30
2019-02-14T03:42:42.263Z,73.60
2019-02-14T03:45:14.603Z,74.00
2019-02-14T03:47:43.981Z,73.90
2019-02-14T03:50:13.635Z,73.90
2019-02-14T03:52:42.813Z,74.40
2019-02-14T03:55:12.006Z,73.80
2019-02-14T03:57:41.172Z,74.30
2019-02-14T04:00:12.793Z,74.50
2019-02-14T04:02:42.344Z,74.70
2019-02-14T04:05:11.877Z,74.60
2019-02-14T04:07:41.380Z,74.00
2019-02-14T04:10:11.764Z,74.00
2019-02-14T04:12:40.944Z,74.10
2019-02-14T04:15:12.892Z,74.60
2019-02-14T04:17:42.085Z,74.00
2019-02-14T04:20:11.259Z,74.60
2019-02-14T04:22:40.530Z,75.40
2019-02-14T04:25:09.747Z,76.40
2019-02-14T04:27:39.079Z,76.00
2019-02-14T04:30:09.732Z,75.80
2019-02-14T04:32:38.985Z,75.50
2019-02-14T04:35:08.305Z,75.90
2019-02-14T04:37:38.008Z,76.00
2019-02-14T04:40:08.973Z,76.00
2019-02-14T04:42:38.249Z,75.50
2019-02-14T04:45:07.965Z,75.80
2019-02-14T04:47:37.168Z,75.50
2019-02-14T04:50:06.904Z,75.50
2019-02-14T04:52:36.088Z,75.30
2019-02-14T04:55:06.024Z,75.80
2019-02-14T04:57:35.305Z,75.60
2019-02-14T05:00:05.612Z,76.00
2019-02-14T05:02:34.804Z,76.10
2019-02-14T05:05:04.799Z,76.10
2019-02-14T05:07:33.979Z,76.50
2019-02-14T05:10:03.245Z,76.40
2019-02-14T05:12:32.456Z,76.10
2019-02-14T05:15:01.665Z,76.30
2019-02-14T05:17:30.892Z,75.00
2019-02-14T05:20:00.053Z,75.60
2019-02-14T05:22:29.221Z,75.40
2019-02-14T05:24:58.393Z,75.60
2019-02-14T05:27:27.794Z,75.20
2019-02-14T05:29:58.232Z,75.60
2019-02-14T05:32:27.701Z,76.20
2019-02-14T05:34:57.231Z,75.70
2019-02-14T05:37:26.373Z,75.90
2019-02-14T05:39:55.566Z,76.50
2019-02-14T05:42:25.219Z,77.50
2019-02-14T05:44:54.492Z,76.10
2019-02-14T05:47:23.981Z,75.50
2019-02-14T05:49:53.161Z,75.10
2019-02-14T05:52:22.313Z,74.50
2019-02-14T05:54:51.673Z,73.70
2019-02-14T05:57:21.271Z,74.30
2019-02-14T05:59:50.565Z,74.80
2019-02-14T06:02:19.805Z,74.80
2019-02-14T06:04:49.008Z,74.90
2019-02-14T06:07:18.315Z,76.20
2019-02-14T06:09:47.612Z,75.90
2019-02-14T06:12:16.778Z,75.40
2019-02-14T06:14:46.092Z,75.40
2019-02-14T06:17:15.369Z,74.50
2019-02-14T06:19:44.560Z,74.60
2019-02-14T06:22:13.719Z,74.60
2019-02-14T06:24:42.904Z,75.30
2019-02-14T06:27:12.156Z,76.40
2019-02-14T06:29:41.356Z,76.10
2019-02-14T06:32:10.545Z,76.20
2019-02-14T06:34:39.826Z,75.90
2019-02-14T06:37:09.880Z,75.40
2019-02-14T06:39:39.586Z,75.50
2019-02-14T06:42:09.081Z,75.30
2019-02-14T06:44:38.673Z,74.60
2019-02-14T06:47:07.865Z,74.60
2019-02-14T06:49:37.021Z,75.60
2019-02-14T06:52:06.418Z,76.30
2019-02-14T06:54:35.780Z,75.90
2019-02-14T06:57:04.982Z,76.90
2019-02-14T06:59:34.153Z,76.10
2019-02-14T07:02:03.518Z,76.50
2019-02-14T07:04:33.057Z,76.20
2019-02-14T07:07:02.248Z,75.80
2019-02-14T07:09:31.431Z,75.10
2019-02-14T07:12:00.752Z,75.20
2019-02-14T07:14:29.908Z,75.30
2019-02-14T07:16:59.120Z,74.70
2019-02-14T07:19:28.287Z,75.10
2019-02-14T07:21:57.456Z,75.70
2019-02-14T07:24:26.624Z,76.10
2019-02-14T07:26:56.173Z,76.10
2019-02-14T07:29:25.300Z,75.10
2019-02-14T07:31:54.492Z,75.10
2019-02-14T07:34:23.656Z,75.00
2019-02-14T07:36:52.864Z,74.80
2019-02-14T07:39:22.027Z,75.40
2019-02-14T07:41:51.193Z,74.90
2019-02-14T07:44:20.408Z,74.60
2019-02-14T07:46:49.557Z,74.80
2019-02-14T07:49:18.716Z,75.00
2019-02-14T07:51:48.707Z,74.40
2019-02-14T07:54:18.048Z,74.10
2019-02-14T07:56:47.212Z,74.50
2019-02-14T07:59:16.389Z,73.80
2019-02-14T08:01:45.586Z,72.50
2019-02-14T08:04:14.741Z,71.30
2019-02-14T08:06:43.899Z,70.00
2019-02-14T08:09:13.076Z,68.90
2019-02-14T08:11:42.279Z,68.60
2019-02-14T08:14:11.441Z,67.90
2019-02-14T08:16:40.604Z,68.30
2019-02-14T08:19:09.787Z,67.80
2019-02-14T08:21:38.920Z,67.60
2019-02-14T08:24:08.068Z,66.10
2019-02-14T08:26:38.477Z,63.90
2019-02-14T08:29:07.881Z,62.90
2019-02-14T08:31:37.049Z,61.20
2019-02-14T08:34:25.532Z,60.40
2019-02-14T08:36:54.664Z,58.40
2019-02-14T08:39:23.866Z,56.80
2019-02-14T08:41:53.227Z,54.50
2019-02-14T08:44:22.488Z,53.90
2019-02-14T08:46:51.680Z,56.50
2019-02-14T08:49:20.842Z,56.20
2019-02-14T08:51:50.031Z,57.10
2019-02-14T08:54:19.232Z,56.60
2019-02-14T08:56:48.427Z,56.60
2019-02-14T08:59:17.652Z,55.70
2019-02-14T09:01:46.855Z,54.00
2019-02-14T09:04:16.012Z,54.50
2019-02-14T09:06:45.200Z,54.30
2019-02-14T09:09:14.467Z,54.20
2019-02-14T09:11:43.635Z,55.20
2019-02-14T09:14:31.884Z,54.20
2019-02-14T09:17:01.404Z,53.30
2019-02-14T09:19:30.553Z,54.00
2019-02-14T09:21:59.698Z,54.40
2019-02-14T09:24:28.845Z,54.70
2019-02-14T09:26:58.057Z,48.40
2019-02-14T09:29:27.267Z,41.70
2019-02-14T09:31:56.661Z,37.50
2019-02-14T09:34:25.895Z,31.90
2019-02-14T09:36:55.070Z,28.50
2019-02-14T09:39:24.396Z,28.40
2019-02-14T09:41:53.679Z,27.50
2019-02-14T09:44:22.838Z,26.60
2019-02-14T09:46:52.226Z,26.30
2019-02-14T09:49:22.123Z,27.10
2019-02-14T09:51:51.553Z,28.90
2019-02-14T09:54:20.707Z,33.20
2019-02-14T09:56:49.844Z,35.90
2019-02-14T09:59:19.064Z,38.30
2019-02-14T10:01:48.261Z,40.80
2019-02-14T10:04:17.442Z,40.70
2019-02-14T10:06:46.628Z,40.00
2019-02-14T10:09:17.033Z,40.10
2019-02-14T10:11:46.206Z,41.60
2019-02-14T10:14:15.497Z,36.80
2019-02-14T10:16:46.693Z,35.40
2019-02-14T10:19:16.272Z,33.50
2019-02-14T10:21:45.428Z,31.50
2019-02-14T10:24:14.585Z,28.70
2019-02-14T10:26:43.781Z,26.80
2019-02-14T10:29:13.376Z,27.10
2019-02-14T10:31:42.609Z,25.40
2019-02-14T10:34:11.979Z,23.40
2019-02-14T10:36:41.352Z,22.50
2019-02-14T10:39:10.521Z,22.30
2019-02-14T10:41:39.704Z,21.80
2019-02-14T10:44:08.870Z,21.80
2019-02-14T10:46:38.286Z,21.50
2019-02-14T10:49:07.826Z,20.90
2019-02-14T10:51:37.343Z,20.00
2019-02-14T10:54:06.820Z,19.60
2019-02-14T10:56:37.187Z,22.30
2019-02-14T10:59:06.377Z,23.50
2019-02-14T11:01:35.517Z,26.40
2019-02-14T11:04:04.890Z,27.10
2019-02-14T11:06:34.046Z,25.80
2019-02-14T11:09:04.253Z,25.50
2019-02-14T11:11:33.409Z,24.90
2019-02-14T11:14:02.573Z,21.60
2019-02-14T11:16:31.840Z,20.30
2019-02-14T11:19:01.020Z,20.30
2019-02-14T11:21:30.169Z,19.40
2019-02-14T11:23:59.486Z,16.90
2019-02-14T11:26:28.667Z,13.90
2019-02-14T11:28:57.963Z,13.60
2019-02-14T11:31:27.200Z,13.40
2019-02-14T11:33:56.560Z,13.40
2019-02-14T11:36:25.728Z,15.20
2019-02-14T11:38:54.876Z,15.20
2019-02-14T11:41:24.259Z,16.90
2019-02-14T11:43:53.441Z,17.00
2019-02-14T11:46:22.689Z,18.70
2019-02-14T11:48:51.860Z,21.40
2019-02-14T11:51:21.060Z,23.50
2019-02-14T11:53:50.500Z,25.40
2019-02-14T11:56:19.705Z,26.90
2019-02-14T11:58:49.068Z,28.50
2019-02-14T12:01:18.359Z,29.30
2019-02-14T12:03:47.517Z,29.80
2019-02-14T12:06:17.682Z,29.40
2019-02-14T12:08:57.926Z,30.60
2019-02-14T12:11:18.085Z,31.20
2019-02-14T12:13:47.383Z,31.40
2019-02-14T12:16:16.545Z,31.10
2019-02-14T12:18:45.683Z,31.20
2019-02-14T12:21:14.912Z,32.70
2019-02-14T12:23:44.089Z,32.70
2019-02-14T12:26:13.261Z,32.00
2019-02-14T12:28:42.650Z,31.90
2019-02-14T12:31:11.839Z,31.60
2019-02-14T12:33:40.988Z,32.90
2019-02-14T12:36:10.444Z,33.00
2019-02-14T12:38:39.873Z,32.70
2019-02-14T12:41:09.058Z,33.30
2019-02-14T12:43:38.221Z,34.90
2019-02-14T12:46:07.561Z,35.10
2019-02-14T12:48:37.040Z,36.30
2019-02-14T12:51:06.228Z,36.40
2019-02-14T12:53:35.383Z,37.90
2019-02-14T12:56:04.518Z,37.80
2019-02-14T12:58:33.688Z,34.20
2019-02-14T13:01:02.885Z,31.70
2019-02-14T13:03:32.060Z,32.10
2019-02-14T13:06:01.288Z,31.70
2019-02-14T13:08:30.498Z,29.30
2019-02-14T13:10:59.695Z,26.20
2019-02-14T13:13:28.884Z,24.30
2019-02-14T13:15:58.108Z,24.90
2019-02-14T13:18:27.296Z,26.30
2019-02-14T13:20:56.534Z,26.80
2019-02-14T13:23:25.896Z,27.00
2019-02-14T13:25:55.043Z,28.40
2019-02-14T13:28:24.231Z,28.80
2019-02-14T13:30:53.404Z,26.10
2019-02-14T13:33:22.589Z,23.90
2019-02-14T13:35:51.788Z,22.30
2019-02-14T13:38:21.338Z,18.40
2019-02-14T13:40:50.603Z,15.50
2019-02-14T13:43:19.793Z,15.20
2019-02-14T13:45:48.945Z,15.70
2019-02-14T13:48:18.300Z,16.10
2019-02-14T13:50:47.605Z,16.30
2019-02-14T13:53:16.862Z,16.30
2019-02-14T13:55:46.126Z,16.60
2019-02-14T13:58:15.549Z,17.00
2019-02-14T14:00:45.018Z,18.30
2019-02-14T14:03:14.287Z,19.40
2019-02-14T14:05:43.609Z,17.70
2019-02-14T14:08:12.884Z,17.30
2019-02-14T14:10:42.078Z,16.70
2019-02-14T14:13:11.227Z,15.50
2019-02-14T14:15:40.393Z,13.40
2019-02-14T14:18:09.560Z,14.20
2019-02-14T14:20:38.745Z,15.10
2019-02-14T14:23:07.964Z,16.30
2019-02-14T14:25:37.210Z,16.10
2019-02-14T14:28:06.355Z,16.30
2019-02-14T14:30:35.748Z,12.00
2019-02-14T14:33:05.012Z,10.70
2019-02-14T14:35:34.192Z,9.30
2019-02-14T14:38:03.509Z,9.90
2019-02-14T14:40:32.845Z,11.40
2019-02-14T14:43:21.033Z,12.80
2019-02-14T14:45:58.244Z,12.30
2019-02-14T14:48:31.244Z,13.30
2019-02-14T14:51:00.633Z,14.10
2019-02-14T14:53:29.930Z,15.60
2019-02-14T14:55:59.105Z,17.70
2019-02-14T14:58:28.264Z,17.00
2019-02-14T15:00:57.440Z,18.30
2019-02-14T15:03:26.593Z,18.20
2019-02-14T15:05:55.823Z,18.60
2019-02-14T15:08:24.996Z,19.20
2019-02-14T15:10:54.168Z,19.20
2019-02-14T15:13:23.337Z,20.40
2019-02-14T15:15:52.932Z,19.90
2019-02-14T15:18:22.126Z,20.50
2019-02-14T15:20:51.288Z,20.60
2019-02-14T15:23:20.436Z,20.50
2019-02-14T15:25:49.729Z,20.90
2019-02-14T15:28:19.076Z,20.50
2019-02-14T15:30:48.531Z,23.60
2019-02-14T15:33:17.706Z,21.30
2019-02-14T15:35:46.869Z,20.60
2019-02-14T15:38:16.168Z,21.70
2019-02-14T15:40:45.445Z,24.00
2019-02-14T15:43:14.743Z,23.90
2019-02-14T15:45:44.001Z,25.20
2019-02-14T15:48:13.212Z,25.50
2019-02-14T15:50:42.443Z,26.00
2019-02-14T15:53:11.782Z,28.50
2019-02-14T15:55:41.790Z,29.80
2019-02-14T15:58:11.937Z,28.90
2019-02-14T16:00:41.173Z,29.60
2019-02-14T16:03:10.376Z,31.10
2019-02-14T16:05:40.268Z,31.70
2019-02-14T16:08:10.681Z,33.50
2019-02-14T16:10:39.988Z,36.10
2019-02-14T16:13:09.836Z,38.80
2019-02-14T16:15:39.340Z,39.90
2019-02-14T16:18:08.592Z,40.90
2019-02-14T16:20:39.780Z,42.40
2019-02-14T16:23:08.680Z,42.90
2019-02-14T16:25:37.861Z,41.60
2019-02-14T16:28:07.026Z,41.70
2019-02-14T16:30:36.296Z,43.90
2019-02-14T16:33:05.454Z,45.30
2019-02-14T16:35:34.634Z,46.50
2019-02-14T16:38:04.166Z,45.60
2019-02-14T16:40:38.653Z,46.10
2019-02-14T16:43:04.222Z,46.30
2019-02-14T16:45:33.665Z,47.10
2019-02-14T16:48:03.164Z,47.90
2019-02-14T16:50:32.348Z,48.60
2019-02-14T16:53:01.488Z,49.10
2019-02-14T16:55:30.677Z,49.10
2019-02-14T16:57:59.828Z,49.20
2019-02-14T17:00:29.095Z,49.50
2019-02-14T17:02:58.241Z,49.10
2019-02-14T17:05:27.426Z,49.50
2019-02-14T17:07:56.553Z,49.70
2019-02-14T17:10:25.760Z,50.10
2019-02-14T17:12:55.006Z,49.50
2019-02-14T17:15:24.214Z,49.50
2019-02-14T17:17:53.380Z,48.90
2019-02-14T17:20:22.550Z,49.40
2019-02-14T17:22:51.959Z,50.10
2019-02-14T17:25:21.440Z,50.70
2019-02-14T17:27:50.608Z,50.40
2019-02-14T17:30:19.887Z,50.90
2019-02-14T17:32:49.156Z,51.50
2019-02-14T17:35:18.706Z,51.70
2019-02-14T17:37:48.061Z,51.60
2019-02-14T17:40:17.236Z,51.80
2019-02-14T17:42:46.640Z,52.60
2019-02-14T17:45:15.833Z,53.60
2019-02-14T17:47:45.276Z,53.80
2019-02-14T17:50:14.997Z,54.10
2019-02-14T17:52:44.379Z,53.70
2019-02-14T17:55:13.601Z,52.10
2019-02-14T17:57:42.997Z,53.00
2019-02-14T18:00:12.954Z,53.70
2019-02-14T18:02:42.497Z,54.30
2019-02-14T18:05:11.676Z,54.10
2019-02-14T18:07:40.852Z,54.20
2019-02-14T18:10:11.223Z,54.10
2019-02-14T18:12:40.361Z,54.80
2019-02-14T18:15:11.097Z,54.90
2019-02-14T18:17:40.344Z,55.40
2019-02-14T18:20:10.824Z,55.40
2019-02-14T18:22:40.125Z,56.00
2019-02-14T18:25:10.323Z,55.90
2019-02-14T18:27:39.557Z,55.50
2019-02-14T18:30:10.058Z,55.30
2019-02-14T18:32:39.207Z,55.30
2019-02-14T18:35:09.186Z,55.90
2019-02-14T18:37:38.367Z,56.10
2019-02-14T18:40:08.495Z,56.80
2019-02-14T18:42:38.968Z,57.20
2019-02-14T18:45:10.965Z,56.80
2019-02-14T18:47:40.313Z,56.80
2019-02-14T18:50:10.838Z,57.00
2019-02-14T18:52:42.592Z,57.60
2019-02-14T18:55:11.795Z,57.70
2019-02-14T18:57:41.070Z,57.70
2019-02-14T19:00:12.523Z,57.70
2019-02-14T19:02:42.122Z,58.30
2019-02-14T19:05:11.728Z,58.80
2019-02-14T19:07:41.038Z,58.90
2019-02-14T19:10:11.661Z,59.10
2019-02-14T19:12:41.014Z,59.00
2019-02-14T19:15:11.018Z,59.40
2019-02-14T19:17:40.288Z,59.70
2019-02-14T19:20:09.798Z,59.90
2019-02-14T19:22:39.246Z,59.20
2019-02-14T19:25:08.827Z,59.10
2019-02-14T19:27:37.956Z,59.70
2019-02-14T19:30:10.378Z,60.10
2019-02-14T19:32:39.041Z,59.60
2019-02-14T19:35:08.980Z,59.60
2019-02-14T19:37:38.169Z,59.40
2019-02-14T19:40:07.862Z,59.80
2019-02-14T19:42:37.448Z,60.00
2019-02-14T19:45:07.386Z,60.30
2019-02-14T19:47:36.652Z,60.40
2019-02-14T19:50:07.115Z,60.60
2019-02-14T19:52:36.321Z,61.00
2019-02-14T19:55:05.918Z,61.20
2019-02-14T19:57:35.408Z,61.40
2019-02-14T20:00:05.429Z,61.20
2019-02-14T20:02:34.581Z,61.70
2019-02-14T20:05:04.830Z,61.60
2019-02-14T20:07:34.039Z,61.50
2019-02-14T20:10:04.693Z,61.80
2019-02-14T20:12:33.988Z,62.20
2019-02-14T20:15:03.241Z,62.00
2019-02-14T20:17:32.560Z,62.10
2019-02-14T20:20:01.731Z,62.20
2019-02-14T20:22:31.009Z,62.00
2019-02-14T20:25:00.517Z,61.90
2019-02-14T20:27:29.679Z,61.90
2019-02-14T20:29:58.860Z,62.30
2019-02-14T20:32:28.026Z,62.30
2019-02-14T20:34:57.357Z,62.90
2019-02-14T20:37:26.490Z,63.10
2019-02-14T20:39:55.696Z,63.20
2019-02-14T20:42:24.852Z,63.50
2019-02-14T20:44:54.090Z,62.80
2019-02-14T20:47:23.419Z,63.30
2019-02-14T20:49:52.619Z,63.50
2019-02-14T20:52:21.860Z,64.00
2019-02-14T20:54:51.144Z,64.40
2019-02-14T20:57:20.324Z,63.90
2019-02-14T20:59:49.811Z,64.20
2019-02-14T21:02:19.040Z,64.80
2019-02-14T21:04:48.267Z,65.00
2019-02-14T21:07:17.615Z,64.70
2019-02-14T21:09:46.861Z,64.50
2019-02-14T21:12:16.075Z,64.80
2019-02-14T21:14:45.326Z,64.80
2019-02-14T21:17:14.474Z,65.10
2019-02-14T21:19:43.690Z,65.50
2019-02-14T21:22:18.234Z,65.70
2019-02-14T21:24:43.799Z,65.70
2019-02-14T21:27:13.271Z,65.60
2019-02-14T21:29:42.422Z,65.60
2019-02-14T21:32:11.620Z,66.10
2019-02-14T21:34:40.790Z,66.20
2019-02-14T21:37:09.996Z,65.80
2019-02-14T21:39:39.237Z,65.50
2019-02-14T21:42:19.783Z,65.80
2019-02-14T21:44:39.433Z,66.30
2019-02-14T21:47:08.993Z,66.90
2019-02-14T21:49:38.282Z,66.30
2019-02-14T21:52:07.457Z,66.10
2019-02-14T21:54:36.833Z,66.10
2019-02-14T21:57:06.044Z,66.30
2019-02-14T21:59:35.274Z,66.40
2019-02-14T22:02:06.225Z,66.30
2019-02-14T22:04:35.854Z,66.30
2019-02-14T22:07:05.235Z,66.80
2019-02-14T22:09:37.434Z,66.90
2019-02-14T22:12:06.833Z,66.70
2019-02-14T22:14:36.063Z,66.70
2019-02-14T22:17:05.223Z,66.70
2019-02-14T22:19:34.556Z,67.20
2019-02-14T22:22:03.802Z,67.00
2019-02-14T22:24:33.125Z,67.20
2019-02-14T22:27:02.260Z,67.50
2019-02-14T22:29:31.410Z,67.30
2019-02-14T22:32:00.564Z,67.20
2019-02-14T22:34:29.737Z,67.40
2019-02-14T22:36:58.944Z,67.30
2019-02-14T22:39:28.109Z,67.70
2019-02-14T22:41:57.336Z,69.20
2019-02-14T22:44:26.626Z,68.20
2019-02-14T22:46:55.790Z,68.70
2019-02-14T22:49:25.029Z,68.60
2019-02-14T22:51:54.183Z,68.10
2019-02-14T22:54:23.339Z,68.30
2019-02-14T22:56:52.556Z,68.90
2019-02-14T22:59:21.708Z,68.80
2019-02-14T23:01:51.555Z,68.90
2019-02-14T23:04:20.727Z,68.60
2019-02-14T23:06:49.881Z,69.20
2019-02-14T23:09:19.542Z,68.70
2019-02-14T23:11:48.757Z,68.70
2019-02-14T23:14:17.973Z,69.10
2019-02-14T23:16:47.108Z,69.30
2019-02-14T23:19:16.335Z,69.60
2019-02-14T23:21:45.565Z,69.40
2019-02-14T23:24:14.739Z,69.60
2019-02-14T23:26:43.888Z,70.00
2019-02-14T23:29:13.228Z,70.10
2019-02-14T23:31:42.394Z,70.00
2019-02-14T23:34:11.599Z,70.40
2019-02-14T23:36:40.867Z,70.70
2019-02-14T23:39:10.502Z,70.60
2019-02-14T23:41:39.655Z,70.30
2019-02-14T23:44:08.820Z,70.00
2019-02-14T23:46:37.956Z,70.80
2019-02-14T23:49:07.301Z,70.30
2019-02-14T23:51:36.461Z,70.80
2019-02-14T23:54:05.625Z,71.10
2019-02-14T23:56:34.784Z,71.20
2019-02-14T23:59:03.941Z,70.90
